Time;durP1;ratioP1;P1;durP2;ratioP2;P2;SDS_P1;SDS_P2;PMS_P1;PMS_P2;Temp;Humidity;BMP_temperature;BMP_pressure;BME280_temperature;BME280_humidity;BME280_pressure;Samples;Min_cycle;Max_cycle;Signal;HPM_P1;HPM_P2
2022/09/13 00:00:52;;;;;;;2.58;1.60;;;;;;;20.11;73.42;100233.13;5010437;28;20037;-66
2022/09/13 00:03:19;;;;;;;1.73;1.30;;;;;;;20.00;73.37;100234.59;5029398;28;20112;-65
2022/09/13 00:05:45;;;;;;;2.65;1.60;;;;;;;19.92;74.41;100228.53;5024836;28;20037;-66
2022/09/13 00:08:11;;;;;;;3.33;1.60;;;;;;;19.96;75.74;100233.91;5029131;28;20022;-65
2022/09/13 00:10:38;;;;;;;3.67;1.45;;;;;;;20.13;74.49;100227.25;5028017;28;20032;-65
2022/09/13 00:13:05;;;;;;;2.58;1.65;;;;;;;20.14;75.88;100224.09;5031608;28;20064;-65
2022/09/13 00:15:31;;;;;;;2.30;1.67;;;;;;;20.06;75.95;100216.47;5019390;28;20033;-65
2022/09/13 00:17:57;;;;;;;2.75;1.70;;;;;;;20.23;75.08;100220.75;5016175;28;20083;-65
2022/09/13 00:20:22;;;;;;;2.88;1.80;;;;;;;20.22;75.02;100221.97;5029462;28;20052;-65
2022/09/13 00:22:48;;;;;;;2.47;1.30;;;;;;;20.15;74.68;100216.66;5037363;28;20033;-65
2022/09/13 00:25:13;;;;;;;2.70;1.88;;;;;;;20.11;74.84;100210.50;5029628;28;20033;-65
2022/09/13 00:27:39;;;;;;;2.20;1.48;;;;;;;20.14;75.05;100212.38;5030659;28;20025;-65
2022/09/13 00:30:06;;;;;;;1.50;1.30;;;;;;;19.99;75.80;100206.50;5008746;28;20433;-65
2022/09/13 00:32:33;;;;;;;3.22;1.60;;;;;;;19.89;75.28;100201.28;5030380;28;20079;-65
2022/09/13 00:35:00;;;;;;;2.20;1.67;;;;;;;19.97;75.08;100197.19;5029066;28;20432;-65
2022/09/13 00:37:26;;;;;;;2.28;1.25;;;;;;;20.01;75.01;100198.66;5027741;28;20031;-65
2022/09/13 00:39:51;;;;;;;2.25;1.70;;;;;;;20.09;74.87;100199.22;5001821;28;20496;-65
2022/09/13 00:42:17;;;;;;;1.85;1.50;;;;;;;20.15;73.64;100192.78;5030285;28;20502;-66
2022/09/13 00:44:52;;;;;;;2.20;1.70;;;;;;;20.05;73.56;100182.16;5027429;28;20112;-66
2022/09/13 00:47:30;;;;;;;2.10;1.40;;;;;;;20.10;74.30;100184.34;5031694;28;20060;-65
2022/09/13 00:50:27;;;;;;;2.08;1.63;;;;;;;20.18;73.93;100181.03;5032182;28;20038;-66
2022/09/13 00:52:59;;;;;;;2.17;1.50;;;;;;;20.07;74.84;100180.53;5015158;28;20053;-66
2022/09/13 00:55:47;;;;;;;2.88;1.40;;;;;;;19.94;77.30;100174.22;5032918;28;20112;-66
2022/09/13 00:58:19;;;;;;;5.13;1.92;;;;;;;19.90;79.67;100181.72;5018343;28;20053;-66
2022/09/13 01:00:45;;;;;;;2.13;1.50;;;;;;;19.90;80.74;100178.25;5029436;28;20032;-66
2022/09/13 01:03:14;;;;;;;2.05;1.10;;;;;;;19.79;81.03;100179.28;5028570;28;20422;-66
2022/09/13 01:05:46;;;;;;;1.80;1.50;;;;;;;19.68;83.06;100175.28;5009023;28;20044;-67
2022/09/13 01:08:19;;;;;;;1.90;1.50;;;;;;;19.64;84.35;100169.13;5019518;28;20043;-66
2022/09/13 01:10:44;;;;;;;4.30;1.60;;;;;;;19.68;84.49;100176.06;5035845;28;20025;-66
2022/09/13 01:13:16;;;;;;;1.70;1.50;;;;;;;19.61;85.80;100176.22;5026957;28;20040;-66
2022/09/13 01:15:42;;;;;;;2.67;1.50;;;;;;;19.51;86.67;100171.00;5029408;28;20059;-66
2022/09/13 01:18:09;;;;;;;4.25;1.80;;;;;;;19.49;87.24;100171.41;5029758;28;20040;-66
2022/09/13 01:21:06;;;;;;;7.47;1.70;;;;;;;19.49;86.96;100167.94;5029888;28;20021;-66
2022/09/13 01:23:43;;;;;;;1.77;1.42;;;;;;;19.45;87.46;100176.19;5031997;28;20048;-66
2022/09/13 01:26:20;;;;;;;3.72;1.83;;;;;;;19.36;88.79;100181.50;5029613;28;20516;-66
2022/09/13 01:29:03;;;;;;;3.45;1.80;;;;;;;19.31;89.62;100178.47;5025333;28;20040;-66
2022/09/13 01:31:31;;;;;;;2.28;1.55;;;;;;;19.22;90.10;100184.50;5029906;28;20029;-66
2022/09/13 01:34:30;;;;;;;2.55;1.80;;;;;;;19.13;90.13;100173.41;5028909;28;20037;-66
2022/09/13 01:37:20;;;;;;;1.58;1.38;;;;;;;19.08;90.04;100157.53;5027115;28;20056;-66
2022/09/13 01:40:09;;;;;;;3.03;1.77;;;;;;;18.83;90.71;100165.50;5029621;28;20061;-66
2022/09/13 01:42:35;;;;;;;2.80;1.73;;;;;;;19.00;90.27;100150.69;5027469;28;20034;-66
2022/09/13 01:45:37;;;;;;;3.17;1.70;;;;;;;18.79;90.11;100162.81;5024342;28;20056;-66
2022/09/13 01:48:29;;;;;;;2.90;1.77;;;;;;;18.95;90.73;100159.38;5033781;28;20116;-66
2022/09/13 01:51:00;;;;;;;4.65;1.92;;;;;;;19.09;89.83;100150.88;5029603;28;20533;-66
2022/09/13 01:54:04;;;;;;;1.95;1.73;;;;;;;18.99;90.36;100138.22;5023688;28;20077;-66
2022/09/13 01:56:55;;;;;;;2.85;1.73;;;;;;;19.01;91.38;100126.91;5024484;28;20490;-66
2022/09/13 01:59:36;;;;;;;3.28;1.85;;;;;;;18.84;91.21;100113.22;5027719;28;20038;-66
2022/09/13 02:02:10;;;;;;;2.95;2.10;;;;;;;18.81;91.85;100102.41;5026531;28;20109;-66
2022/09/13 02:04:43;;;;;;;2.92;1.70;;;;;;;18.88;92.02;100104.97;5016099;28;20136;-66
2022/09/13 02:07:18;;;;;;;5.72;2.17;;;;;;;18.72;92.02;100113.09;5029434;28;20029;-66
2022/09/13 02:09:50;;;;;;;2.67;1.98;;;;;;;18.56;92.89;100102.91;5024911;28;20030;-66
2022/09/13 02:12:23;;;;;;;3.75;1.75;;;;;;;18.64;93.81;100103.56;5028714;28;20421;-66
2022/09/13 02:15:02;;;;;;;5.07;1.90;;;;;;;18.57;94.13;100098.22;5028461;28;20080;-66
2022/09/13 02:17:34;;;;;;;7.32;1.88;;;;;;;18.55;94.96;100086.97;5028255;28;20037;-66
2022/09/13 02:20:06;;;;;;;3.78;2.08;;;;;;;18.59;96.17;100098.59;5033245;28;20040;-66
2022/09/13 02:22:40;;;;;;;2.70;1.70;;;;;;;18.67;96.65;100110.88;5022373;28;20082;-66
2022/09/13 02:25:11;;;;;;;3.13;1.80;;;;;;;18.86;96.08;100105.38;5028702;28;20029;-66
2022/09/13 02:27:38;;;;;;;2.90;1.70;;;;;;;18.81;94.67;100102.41;5026980;28;20080;-66
2022/09/13 02:30:07;;;;;;;2.75;1.92;;;;;;;18.87;94.04;100106.16;5037215;28;20048;-66
2022/09/13 02:32:47;;;;;;;5.22;1.85;;;;;;;18.92;93.30;100100.97;5012067;28;20041;-66
2022/09/13 02:35:20;;;;;;;3.00;1.80;;;;;;;18.91;92.54;100099.41;5024403;28;20393;-66
2022/09/13 02:37:51;;;;;;;4.18;2.10;;;;;;;18.89;92.26;100092.88;5033182;28;20758;-66
2022/09/13 02:40:24;;;;;;;2.58;1.60;;;;;;;18.95;91.88;100084.94;5014284;28;20509;-66
2022/09/13 02:43:00;;;;;;;2.55;1.83;;;;;;;18.99;91.61;100080.91;5027304;28;20473;-66
2022/09/13 02:45:45;;;;;;;3.33;1.80;;;;;;;18.81;92.50;100078.59;5028110;28;20061;-66
2022/09/13 02:48:26;;;;;;;3.50;2.05;;;;;;;18.82;91.78;100076.63;5030300;28;20032;-66
2022/09/13 02:51:02;;;;;;;2.03;1.75;;;;;;;18.80;93.78;100070.81;5029654;28;20117;-66
2022/09/13 02:53:33;;;;;;;3.97;2.28;;;;;;;18.89;92.98;100076.50;5029661;28;20037;-66
2022/09/13 02:56:15;;;;;;;;;;;;;;;18.89;93.07;100062.84;4998771;28;20128;-66
2022/09/13 02:58:50;;;;;;;2.95;1.90;;;;;;;18.97;92.66;100079.81;5021406;28;20411;-66
2022/09/13 03:01:15;;;;;;;6.50;1.92;;;;;;;18.99;93.21;100078.19;5039468;28;20049;-65
2022/09/13 03:03:41;;;;;;;4.60;2.38;;;;;;;18.91;92.91;100069.38;5027997;28;20068;-66
2022/09/13 03:06:07;;;;;;;3.42;2.40;;;;;;;18.87;92.99;100060.50;5030493;28;20038;-66
2022/09/13 03:08:33;;;;;;;2.80;1.75;;;;;;;18.89;92.97;100060.84;5012868;28;20041;-66
2022/09/13 03:11:18;;;;;;;4.43;2.30;;;;;;;18.97;92.26;100055.25;5032310;28;20529;-66
2022/09/13 03:14:09;;;;;;;3.53;2.15;;;;;;;18.79;92.79;100055.66;5029645;28;20044;-66
2022/09/13 03:16:59;;;;;;;5.35;2.00;;;;;;;18.82;93.19;100055.56;5024383;28;20449;-65
2022/09/13 03:19:38;;;;;;;5.45;1.95;;;;;;;18.84;93.71;100047.72;5032648;28;20041;-66
2022/09/13 03:22:40;;;;;;;3.97;2.13;;;;;;;18.98;92.77;100041.16;5029546;28;20038;-66
2022/09/13 03:25:11;;;;;;;3.55;2.20;;;;;;;18.95;92.56;100047.47;5011527;28;20033;-66
2022/09/13 03:27:51;;;;;;;3.15;1.80;;;;;;;18.84;92.83;100047.72;5025980;28;20029;-66
2022/09/13 03:30:18;;;;;;;4.35;2.30;;;;;;;18.86;93.44;100045.34;5029525;28;20040;-66
2022/09/13 03:32:49;;;;;;;4.00;2.25;;;;;;;18.93;93.38;100045.16;5038519;28;20059;-66
2022/09/13 03:35:20;;;;;;;;;;;;;;;18.91;93.69;100042.09;5032112;28;20041;-66
2022/09/13 03:38:00;;;;;;;3.22;2.20;;;;;;;18.89;94.17;100038.28;5024202;28;20004;-66
2022/09/13 03:40:44;;;;;;;5.75;2.15;;;;;;;18.90;93.89;100037.06;5026761;28;20072;-66
2022/09/13 03:43:15;;;;;;;4.85;2.90;;;;;;;18.97;94.15;100034.16;5031813;28;20086;-66
2022/09/13 03:45:51;;;;;;;4.00;2.05;;;;;;;18.95;94.43;100041.25;5029470;28;20041;-65
2022/09/13 03:48:17;;;;;;;4.50;2.40;;;;;;;18.95;94.37;100042.00;5022949;28;20037;-66
2022/09/13 03:50:46;;;;;;;3.55;2.17;;;;;;;19.01;94.37;100036.84;5031737;28;20040;-66
2022/09/13 03:53:18;;;;;;;4.57;2.70;;;;;;;18.91;95.23;100025.72;5028307;28;20080;-66
2022/09/13 03:55:44;;;;;;;6.43;2.35;;;;;;;18.87;95.67;100032.47;5035538;28;20052;-67
2022/09/13 03:58:15;;;;;;;3.55;2.50;;;;;;;18.83;96.00;100027.06;5012273;28;20030;-66
2022/09/13 04:00:40;;;;;;;3.75;2.10;;;;;;;18.78;95.98;100026.81;5031875;28;20151;-66
2022/09/13 04:03:07;;;;;;;5.07;2.88;;;;;;;18.77;95.95;100015.16;5028618;28;20132;-66
2022/09/13 04:05:33;;;;;;;5.45;2.83;;;;;;;18.69;96.40;100021.19;5028749;28;20033;-66
2022/09/13 04:08:00;;;;;;;4.75;2.30;;;;;;;18.78;96.89;100029.56;5031591;28;20754;-66
2022/09/13 04:10:27;;;;;;;4.82;2.70;;;;;;;18.79;97.16;100034.56;5031766;28;20033;-66
2022/09/13 04:12:55;;;;;;;3.85;2.08;;;;;;;18.78;97.24;100032.28;5031537;28;20059;-66
2022/09/13 04:15:21;;;;;;;6.13;2.65;;;;;;;18.79;97.46;100028.38;5039984;28;20448;-66
2022/09/13 04:17:47;;;;;;;5.53;2.67;;;;;;;18.86;96.65;100022.75;5031078;28;20127;-66
2022/09/13 04:20:13;;;;;;;4.07;2.65;;;;;;;18.86;96.49;100028.19;5009618;28;20029;-66
2022/09/13 04:22:38;;;;;;;8.77;2.90;;;;;;;18.82;96.85;100024.78;5035579;28;20032;-66
2022/09/13 04:25:05;;;;;;;5.65;3.08;;;;;;;18.79;97.73;100017.47;5029691;28;20037;-65
2022/09/13 04:27:31;;;;;;;4.60;2.72;;;;;;;18.86;97.62;100014.56;5026218;28;20056;-66
2022/09/13 04:29:56;;;;;;;8.82;3.22;;;;;;;18.91;97.04;100024.97;5036075;28;20069;-65
2022/09/13 04:32:22;;;;;;;6.53;3.00;;;;;;;19.00;97.18;100018.91;5013004;28;20025;-66
2022/09/13 04:34:47;;;;;;;4.68;2.30;;;;;;;18.96;97.34;100019.00;5004717;28;20034;-67
2022/09/13 04:37:13;;;;;;;6.28;2.80;;;;;;;18.95;97.50;100031.09;5040278;28;20049;-67
2022/09/13 04:39:38;;;;;;;5.25;2.75;;;;;;;18.93;98.04;100020.59;5031872;28;20155;-67
2022/09/13 04:42:06;;;;;;;5.63;2.92;;;;;;;18.74;98.53;100010.53;5030969;28;20486;-66
2022/09/13 04:44:32;;;;;;;6.18;3.15;;;;;;;18.81;98.39;100023.25;5028116;28;20032;-66
2022/09/13 04:46:59;;;;;;;4.97;3.17;;;;;;;18.80;98.76;100019.75;5033342;28;20037;-66
2022/09/13 04:49:24;;;;;;;7.93;3.40;;;;;;;18.79;99.08;100029.13;5030040;28;20063;-65
2022/09/13 04:51:50;;;;;;;5.63;3.08;;;;;;;18.77;99.27;100026.06;5012294;28;20113;-66
2022/09/13 04:54:15;;;;;;;8.35;3.78;;;;;;;18.85;98.85;100027.41;5012087;28;20552;-65
2022/09/13 04:56:41;;;;;;;5.60;2.83;;;;;;;18.85;99.45;100030.16;5005011;28;20069;-66
2022/09/13 04:59:06;;;;;;;5.78;2.83;;;;;;;18.89;99.29;100022.66;5016857;28;20548;-66
2022/09/13 05:01:32;;;;;;;6.18;3.45;;;;;;;19.01;98.62;100029.38;5038057;28;20029;-66
2022/09/13 05:03:57;;;;;;;6.85;3.47;;;;;;;18.99;98.74;100033.75;5037999;28;20033;-67
2022/09/13 05:06:23;;;;;;;9.40;3.25;;;;;;;19.04;98.14;100033.22;5030535;28;20051;-65
2022/09/13 05:08:54;;;;;;;5.20;3.00;;;;;;;19.00;98.29;100033.31;5029655;28;20033;-67
2022/09/13 05:11:24;;;;;;;7.95;3.45;;;;;;;18.98;98.72;100032.22;5008429;28;20029;-66
2022/09/13 05:13:54;;;;;;;7.13;3.67;;;;;;;18.99;98.83;100029.03;5033695;28;20040;-66
2022/09/13 05:16:31;;;;;;;7.05;3.30;;;;;;;18.89;99.36;100028.09;5037364;28;20040;-66
2022/09/13 05:18:57;;;;;;;7.65;3.45;;;;;;;18.89;100.00;100038.28;5029845;28;20048;-66
2022/09/13 05:21:23;;;;;;;8.82;3.97;;;;;;;18.91;100.00;100038.63;5041417;28;20029;-67
2022/09/13 05:23:50;;;;;;;6.05;3.13;;;;;;;18.86;100.00;100037.16;5029479;28;20079;-66
2022/09/13 05:26:16;;;;;;;7.15;3.95;;;;;;;19.03;99.96;100050.81;5029677;28;20051;-66
2022/09/13 05:28:42;;;;;;;6.18;3.15;;;;;;;19.03;99.90;100048.84;5026666;28;20028;-66
2022/09/13 05:31:26;;;;;;;9.55;4.13;;;;;;;19.04;100.00;100046.88;5038892;28;20467;-65
2022/09/13 05:33:57;;;;;;;7.40;3.85;;;;;;;19.02;100.00;100035.63;5029601;28;20036;-66
2022/09/13 05:36:23;;;;;;;8.77;4.13;;;;;;;18.95;100.00;100036.56;4997084;28;20034;-66
2022/09/13 05:38:54;;;;;;;8.95;3.97;;;;;;;18.99;100.00;100047.41;5043092;28;20028;-66
2022/09/13 05:41:20;;;;;;;8.63;3.83;;;;;;;19.03;100.00;100050.81;5030803;28;20444;-67
2022/09/13 05:43:45;;;;;;;10.25;3.83;;;;;;;19.06;100.00;100061.66;5036672;28;20042;-66
2022/09/13 05:46:13;;;;;;;8.00;4.13;;;;;;;19.03;100.00;100056.28;5005892;28;20048;-66
2022/09/13 05:48:40;;;;;;;7.85;4.15;;;;;;;19.05;100.00;100049.19;5032133;28;20064;-66
2022/09/13 05:51:10;;;;;;;7.20;3.78;;;;;;;19.10;100.00;100054.16;5031071;28;20079;-66
2022/09/13 05:53:41;;;;;;;7.13;3.95;;;;;;;19.10;100.00;100056.09;5007754;28;20032;-66
2022/09/13 05:56:08;;;;;;;10.77;4.32;;;;;;;19.10;100.00;100056.88;5045810;28;20041;-66
2022/09/13 05:58:38;;;;;;;9.52;4.28;;;;;;;19.16;100.00;100046.97;5023906;28;20025;-66
2022/09/13 06:01:03;;;;;;;6.78;3.70;;;;;;;19.16;100.00;100040.75;5023697;28;20460;-66
2022/09/13 06:03:29;;;;;;;10.30;4.40;;;;;;;19.19;100.00;100039.88;5032798;28;20041;-66
2022/09/13 06:05:57;;;;;;;12.32;4.53;;;;;;;19.20;100.00;100035.97;5033843;28;20038;-67
2022/09/13 06:08:28;;;;;;;7.53;3.72;;;;;;;19.23;100.00;100037.81;5033303;28;20044;-66
2022/09/13 06:10:56;;;;;;;13.25;4.55;;;;;;;19.19;100.00;100043.38;5029676;28;20033;-67
2022/09/13 06:13:21;;;;;;;10.18;4.38;;;;;;;19.25;100.00;100051.81;5030763;28;20116;-65
2022/09/13 06:15:46;;;;;;;8.88;3.88;;;;;;;19.25;100.00;100043.63;5031275;28;20541;-65
2022/09/13 06:18:12;;;;;;;7.25;3.88;;;;;;;19.30;100.00;100043.88;5026802;28;20041;-67
2022/09/13 06:20:37;;;;;;;9.48;4.18;;;;;;;19.34;100.00;100047.31;5039614;28;20128;-66
2022/09/13 06:23:03;;;;;;;8.80;3.95;;;;;;;19.40;100.00;100048.34;5033137;28;20116;-67
2022/09/13 06:25:28;;;;;;;10.48;4.57;;;;;;;19.49;100.00;100040.28;5027028;28;20033;-67
2022/09/13 06:27:53;;;;;;;10.35;4.13;;;;;;;19.54;100.00;100041.75;5005375;28;20045;-66
2022/09/13 06:30:19;;;;;;;8.07;4.20;;;;;;;19.56;100.00;100044.81;5020982;28;20040;-66
2022/09/13 06:32:44;;;;;;;14.05;4.72;;;;;;;19.62;100.00;100043.88;5036805;28;20551;-66
2022/09/13 06:35:10;;;;;;;12.10;5.05;;;;;;;19.64;100.00;100054.34;5023735;28;20064;-66
2022/09/13 06:37:36;;;;;;;10.82;4.22;;;;;;;19.67;100.00;100059.72;5007807;28;20148;-67
2022/09/13 06:40:03;;;;;;;8.40;4.15;;;;;;;19.70;100.00;100052.66;5031798;28;20021;-66
2022/09/13 06:42:29;;;;;;;10.43;4.28;;;;;;;19.69;100.00;100057.34;5033760;28;20398;-67
2022/09/13 06:44:56;;;;;;;8.50;3.90;;;;;;;19.76;100.00;100054.41;5017892;28;20113;-66
2022/09/13 06:47:22;;;;;;;7.57;3.70;;;;;;;19.75;100.00;100052.88;4999178;28;20470;-67
2022/09/13 06:49:47;;;;;;;10.18;4.55;;;;;;;19.76;100.00;100048.19;5042936;28;20025;-66
2022/09/13 06:52:13;;;;;;;10.45;4.57;;;;;;;19.84;100.00;100037.81;5037290;28;20033;-65
2022/09/13 06:54:38;;;;;;;10.63;4.68;;;;;;;19.86;100.00;100038.16;5010677;28;20129;-66
2022/09/13 06:57:03;;;;;;;12.38;4.40;;;;;;;19.89;100.00;100040.00;5036067;28;20033;-66
2022/09/13 06:59:29;;;;;;;12.95;5.10;;;;;;;19.97;100.00;100044.09;5020043;28;20037;-65
2022/09/13 07:01:55;;;;;;;12.07;4.90;;;;;;;20.05;100.00;100051.69;5033391;28;20040;-66
2022/09/13 07:04:22;;;;;;;8.82;4.55;;;;;;;19.99;100.00;100050.66;5025650;28;20406;-66
2022/09/13 07:06:48;;;;;;;11.02;5.32;;;;;;;20.08;100.00;100055.50;5035837;28;20072;-67
2022/09/13 07:09:17;;;;;;;11.18;4.47;;;;;;;20.24;100.00;100055.47;5029959;28;20045;-66
2022/09/13 07:11:43;;;;;;;12.80;4.72;;;;;;;20.27;100.00;100052.63;5027007;28;20033;-66
2022/09/13 07:14:12;;;;;;;9.50;4.55;;;;;;;20.32;100.00;100054.06;5031790;28;20490;-66
2022/09/13 07:16:38;;;;;;;10.05;4.30;;;;;;;20.42;100.00;100055.72;5015709;28;20486;-66
2022/09/13 07:19:12;;;;;;;9.65;4.15;;;;;;;20.52;100.00;100051.88;5037116;28;20040;-66
2022/09/13 07:21:38;;;;;;;11.73;4.75;;;;;;;20.53;100.00;100051.47;5032191;28;20040;-66
2022/09/13 07:24:03;;;;;;;9.93;4.43;;;;;;;20.57;100.00;100065.81;5034269;28;20045;-65
2022/09/13 07:26:30;;;;;;;8.45;4.38;;;;;;;20.62;100.00;100069.94;5026033;28;20034;-66
2022/09/13 07:28:58;;;;;;;13.85;5.20;;;;;;;20.65;100.00;100071.81;5038558;28;20049;-66
2022/09/13 07:31:33;;;;;;;6.68;3.17;;;;;;;20.64;100.00;100068.31;5016622;28;20029;-66
2022/09/13 07:34:01;;;;;;;8.20;3.72;;;;;;;20.68;100.00;100060.75;5031743;28;20557;-66
2022/09/13 07:36:29;;;;;;;10.68;4.10;;;;;;;20.74;100.00;100073.91;5022329;28;20025;-66
2022/09/13 07:38:54;;;;;;;8.23;3.72;;;;;;;20.84;100.00;100065.38;5038481;28;20048;-67
2022/09/13 07:41:22;;;;;;;7.47;3.75;;;;;;;21.04;99.92;100060.44;5030903;28;20037;-66
2022/09/13 07:43:48;;;;;;;11.68;3.85;;;;;;;21.17;99.31;100063.94;5025181;28;20051;-66
2022/09/13 07:46:20;;;;;;;7.63;3.70;;;;;;;21.27;98.99;100076.50;5043218;28;20045;-66
2022/09/13 07:48:46;;;;;;;7.85;3.50;;;;;;;21.37;99.16;100074.63;5033375;28;20069;-66
2022/09/13 07:51:14;;;;;;;8.48;3.75;;;;;;;21.52;98.29;100075.69;5042879;28;20029;-67
2022/09/13 07:53:42;;;;;;;7.53;3.53;;;;;;;21.54;97.52;100079.50;5036796;28;20300;-66
2022/09/13 07:56:16;;;;;;;5.30;3.00;;;;;;;21.37;97.01;100074.63;5031868;28;20045;-66
2022/09/13 07:58:43;;;;;;;8.07;3.20;;;;;;;21.33;97.21;100077.47;5031086;28;20287;-66
2022/09/13 08:01:18;;;;;;;6.28;3.05;;;;;;;21.40;97.01;100076.50;5027772;28;20560;-66
2022/09/13 08:03:49;;;;;;;6.47;2.85;;;;;;;21.63;96.40;100075.31;5042481;28;20035;-67
2022/09/13 08:06:14;;;;;;;7.30;2.63;;;;;;;21.70;96.40;100083.31;5030768;28;20109;-65
2022/09/13 08:08:40;;;;;;;7.38;2.67;;;;;;;21.70;96.39;100089.56;5029489;28;20756;-67
2022/09/13 08:11:06;;;;;;;5.45;3.05;;;;;;;21.77;96.27;100092.06;5033011;28;20029;-67
2022/09/13 08:13:32;;;;;;;6.68;2.65;;;;;;;21.83;95.74;100093.06;5041630;28;20470;-66
2022/09/13 08:16:05;;;;;;;3.47;2.30;;;;;;;21.96;95.50;100098.47;5026608;28;20470;-66
2022/09/13 08:18:31;;;;;;;4.13;2.00;;;;;;;21.97;94.51;100094.53;5026757;28;20439;-67
2022/09/13 08:20:58;;;;;;;5.43;2.50;;;;;;;22.00;94.59;100097.16;5030627;28;20490;-66
2022/09/13 08:23:24;;;;;;;6.53;2.25;;;;;;;21.91;93.68;100105.28;5027831;28;20064;-66
2022/09/13 08:25:50;;;;;;;5.22;2.05;;;;;;;21.83;93.32;100093.06;5019834;28;20798;-67
2022/09/13 08:28:20;;;;;;;5.60;2.70;;;;;;;21.83;93.13;100092.28;5030890;28;20026;-66
2022/09/13 08:30:47;;;;;;;3.50;2.07;;;;;;;21.58;92.42;100096.59;5026916;28;20398;-66
2022/09/13 08:33:13;;;;;;;3.90;1.77;;;;;;;21.63;93.16;100094.50;5030047;28;20041;-66
2022/09/13 08:35:39;;;;;;;4.13;2.10;;;;;;;21.63;93.40;100097.25;5030874;28;20038;-66
2022/09/13 08:38:05;;;;;;;5.50;1.95;;;;;;;21.62;93.16;100095.75;5035379;28;20108;-66
2022/09/13 08:40:37;;;;;;;5.22;2.15;;;;;;;21.76;92.76;100092.50;5021112;28;20030;-66
2022/09/13 08:43:03;;;;;;;2.13;1.60;;;;;;;21.78;92.41;100095.56;5030849;28;20071;-66
2022/09/13 08:45:28;;;;;;;2.90;1.60;;;;;;;21.74;92.98;100089.44;5027123;28;20069;-67
2022/09/13 08:48:00;;;;;;;2.97;1.58;;;;;;;21.83;93.15;100097.78;5038537;28;20049;-67
2022/09/13 08:50:37;;;;;;;1.80;1.42;;;;;;;21.85;92.38;100100.84;5025815;28;20505;-66
2022/09/13 08:53:18;;;;;;;4.13;1.30;;;;;;;21.84;92.44;100102.81;5024582;28;20140;-66
2022/09/13 08:56:07;;;;;;;1.35;1.00;;;;;;;21.72;91.39;100100.84;5019636;28;20457;-66
2022/09/13 08:58:45;;;;;;;3.42;1.02;;;;;;;21.64;91.62;100094.06;5018291;28;20029;-66
2022/09/13 09:01:32;;;;;;;1.33;0.90;;;;;;;21.60;91.23;100087.19;5031527;28;20071;-65
2022/09/13 09:04:14;;;;;;;2.38;1.27;;;;;;;21.60;91.58;100101.66;5029146;28;20037;-66
2022/09/13 09:06:40;;;;;;;3.13;0.82;;;;;;;21.60;90.85;100087.19;5000108;28;20449;-66
2022/09/13 09:09:13;;;;;;;2.72;0.90;;;;;;;21.66;90.24;100090.91;5039327;28;20468;-66
2022/09/13 09:11:53;;;;;;;2.42;1.20;;;;;;;21.58;89.99;100093.13;5016815;28;20429;-66
2022/09/13 09:14:54;;;;;;;7.45;0.93;;;;;;;21.60;90.04;100095.41;5036558;28;20033;-66
2022/09/13 09:17:26;;;;;;;1.80;0.57;;;;;;;21.67;89.71;100100.66;5027184;28;20038;-66
2022/09/13 09:20:02;;;;;;;1.73;0.40;;;;;;;21.72;87.50;100095.34;5026132;28;20368;-66
2022/09/13 09:22:33;;;;;;;1.17;0.40;;;;;;;21.68;87.01;100097.44;5030377;28;20116;-66
2022/09/13 09:24:59;;;;;;;0.80;0.30;;;;;;;21.66;86.55;100099.88;5024517;28;20037;-66
2022/09/13 09:27:25;;;;;;;1.25;0.70;;;;;;;21.72;85.81;100100.09;5030306;28;20444;-66
2022/09/13 09:29:56;;;;;;;4.97;0.30;;;;;;;21.72;85.24;100097.34;5020195;28;20029;-66
2022/09/13 09:32:35;;;;;;;1.55;0.63;;;;;;;21.70;84.08;100108.00;5052136;22;20136;-67
2022/09/13 09:35:17;;;;;;;0.43;0.10;;;;;;;21.72;82.27;100114.53;5052908;28;20677;-70
2022/09/13 09:37:49;;;;;;;0.85;0.25;;;;;;;21.83;82.53;100106.00;5057407;28;20060;-66
2022/09/13 09:40:16;;;;;;;2.20;0.40;;;;;;;22.02;81.13;100102.97;5047812;28;20029;-66
2022/09/13 09:42:47;;;;;;;0.32;0.20;;;;;;;22.00;80.54;100112.84;5051996;28;20531;-67
2022/09/13 09:45:26;;;;;;;0.50;0.20;;;;;;;22.05;80.81;100112.25;5033266;28;20099;-67
2022/09/13 09:47:54;;;;;;;2.53;0.40;;;;;;;22.06;80.37;100111.84;5042008;28;20033;-67
2022/09/13 09:50:29;;;;;;;1.42;0.30;;;;;;;22.14;78.91;100110.34;5027619;28;20049;-71
2022/09/13 09:53:06;;;;;;;0.25;0.15;;;;;;;22.23;77.76;100120.63;5035989;28;20033;-68
2022/09/13 09:55:47;;;;;;;0.20;0.20;;;;;;;22.19;77.69;100118.03;5042696;28;20029;-70
2022/09/13 09:58:17;;;;;;;3.17;0.40;;;;;;;22.23;77.69;100115.16;5045332;28;20240;-67
2022/09/13 10:00:54;;;;;;;3.35;0.30;;;;;;;22.36;78.46;100113.88;5057559;28;20033;-67
2022/09/13 10:03:32;;;;;;;1.35;0.10;;;;;;;22.64;77.54;100111.31;5049490;28;20485;-67
2022/09/13 10:06:11;;;;;;;2.05;0.40;;;;;;;22.88;73.67;100107.59;5031754;28;20040;-67
2022/09/13 10:08:40;;;;;;;0.10;0.10;;;;;;;23.18;69.59;100093.06;5048744;28;20040;-66
2022/09/13 10:11:06;;;;;;;0.55;0.15;;;;;;;23.31;67.49;100103.94;5031796;28;20029;-67
2022/09/13 10:13:32;;;;;;;0.43;0.20;;;;;;;23.32;68.06;100097.25;5049159;28;20037;-67
2022/09/13 10:16:03;;;;;;;0.20;0.20;;;;;;;23.30;66.24;100108.69;5031858;28;20114;-70
2022/09/13 10:18:34;;;;;;;0.28;0.20;;;;;;;23.27;65.85;100097.81;5050182;28;20036;-67
2022/09/13 10:21:03;;;;;;;0.65;0.20;;;;;;;23.34;65.72;100092.06;5015620;28;20040;-67
2022/09/13 10:23:31;;;;;;;0.10;0.10;;;;;;;23.49;66.20;100086.72;5027618;28;20139;-66
2022/09/13 10:25:56;;;;;;;0.10;0.10;;;;;;;23.67;66.26;100089.50;5052813;28;20041;-67
2022/09/13 10:28:23;;;;;;;0.38;0.10;;;;;;;23.93;60.59;100099.75;5028350;28;20029;-67
2022/09/13 10:30:57;;;;;;;0.52;0.20;;;;;;;23.96;57.83;100093.31;5056936;28;20071;-66
2022/09/13 10:33:25;;;;;;;4.88;0.30;;;;;;;23.93;56.76;100093.47;5029430;28;20032;-66
2022/09/13 10:35:55;;;;;;;0.10;0.10;;;;;;;23.90;54.31;100100.66;5050081;28;20033;-66
2022/09/13 10:38:41;;;;;;;2.88;0.43;;;;;;;23.69;54.66;100101.56;5033745;28;20477;-66
2022/09/13 10:41:10;;;;;;;1.20;0.17;;;;;;;23.55;54.36;100099.44;5053051;28;20036;-67
2022/09/13 10:43:36;;;;;;;0.20;0.00;;;;;;;23.69;54.40;100098.06;5049604;28;20094;-67
2022/09/13 10:46:10;;;;;;;1.85;0.50;;;;;;;23.69;54.49;100100.81;5051829;28;20354;-67
2022/09/13 10:48:54;;;;;;;0.90;0.20;;;;;;;23.66;55.22;100102.47;5035431;28;20071;-66
2022/09/13 10:51:30;;;;;;;0.10;0.03;;;;;;;23.90;53.51;100100.66;5053028;28;20036;-66
2022/09/13 10:54:17;;;;;;;0.28;0.10;;;;;;;24.00;52.46;100109.69;5053249;28;20048;-70
2022/09/13 10:56:44;;;;;;;1.52;0.10;;;;;;;24.11;52.74;100107.25;5033431;28;20433;-70
2022/09/13 10:59:24;;;;;;;1.25;0.22;;;;;;;24.39;53.01;100100.47;5022516;28;20047;-70
2022/09/13 11:01:59;;;;;;;3.70;0.10;;;;;;;24.45;53.44;100101.38;5034600;28;20037;-70
2022/09/13 11:04:40;;;;;;;1.40;0.20;;;;;;;24.74;53.35;100106.34;5043899;28;20040;-68
2022/09/13 11:07:30;;;;;;;0.13;0.10;;;;;;;24.79;51.53;100103.75;5053175;28;20065;-70
2022/09/13 11:10:20;;;;;;;0.60;0.20;;;;;;;24.90;51.88;100095.75;5014906;28;20448;-70
2022/09/13 11:13:11;;;;;;;0.10;0.05;;;;;;;25.10;50.90;100099.94;5029316;28;20025;-71
2022/09/13 11:15:53;;;;;;;0.25;0.08;;;;;;;25.11;52.11;100088.44;5044558;28;20489;-71
2022/09/13 11:18:28;;;;;;;2.85;0.20;;;;;;;25.05;50.75;100082.81;5058301;28;20560;-71
2022/09/13 11:21:06;;;;;;;1.80;0.22;;;;;;;24.85;50.16;100088.09;5052088;28;20037;-68
2022/09/13 11:24:02;;;;;;;0.85;0.10;;;;;;;24.91;50.60;100085.50;5050945;28;20488;-71
2022/09/13 11:26:47;;;;;;;0.10;0.10;;;;;;;24.89;50.98;100080.44;5057033;28;20032;-71
2022/09/13 11:29:26;;;;;;;0.40;0.20;;;;;;;24.72;50.88;100082.03;5054656;28;20037;-70
2022/09/13 11:32:02;;;;;;;0.77;0.10;;;;;;;24.57;50.69;100075.63;5059773;28;20035;-71
2022/09/13 11:34:57;;;;;;;0.22;0.10;;;;;;;24.70;50.71;100087.22;5031494;28;20060;-71
2022/09/13 11:37:43;;;;;;;1.10;0.30;;;;;;;24.85;50.51;100084.59;5018651;28;20106;-71
2022/09/13 11:40:53;;;;;;;2.85;0.10;;;;;;;24.76;51.62;100088.16;5037180;28;20067;-71
2022/09/13 11:43:25;;;;;;;0.28;0.10;;;;;;;24.77;50.37;100084.19;5027137;28;20057;-71
2022/09/13 11:46:05;;;;;;;1.60;0.15;;;;;;;24.83;50.13;100076.81;5038726;28;20029;-71